Time;durP1;ratioP1;P1;durP2;ratioP2;P2;SDS_P1;SDS_P2;PMS_P1;PMS_P2;Temp;Humidity;BMP_temperature;BMP_pressure;BME280_temperature;BME280_humidity;BME280_pressure;Samples;Min_cycle;Max_cycle;Signal;HPM_P1;HPM_P2
2022/11/09 00:01:56;;;;;;;31.17;20.37;;;;;;;7.67;83.69;100577.89;1667645;84;21052;-76
2022/11/09 00:04:41;;;;;;;37.03;20.57;;;;;;;7.69;83.72;100577.88;1666921;85;21111;-76
2022/11/09 00:07:30;;;;;;;34.90;20.48;;;;;;;7.69;83.72;100574.88;1670109;84;21052;-76
2022/11/09 00:10:15;;;;;;;29.07;17.75;;;;;;;7.70;83.73;100580.45;1653523;84;21092;-76
2022/11/09 00:13:01;;;;;;;32.78;19.65;;;;;;;7.70;83.68;100579.59;1632645;87;20989;-76
2022/11/09 00:15:46;;;;;;;34.07;19.47;;;;;;;7.70;83.73;100591.17;1639123;87;20975;-76
2022/11/09 00:18:31;;;;;;;29.72;18.25;;;;;;;7.72;83.79;100576.58;1639663;85;21123;-76
2022/11/09 00:21:21;;;;;;;28.05;17.05;;;;;;;7.73;83.78;100578.30;1636655;86;21075;-76
2022/11/09 00:24:06;;;;;;;23.62;16.32;;;;;;;7.75;83.79;100592.02;1629153;86;21653;-76
2022/11/09 00:26:51;;;;;;;26.45;17.98;;;;;;;7.75;83.80;100586.44;1641670;85;20980;-76
2022/11/09 00:29:36;;;;;;;24.20;15.35;;;;;;;7.77;83.81;100588.56;1650931;86;21120;-76
2022/11/09 00:32:21;;;;;;;25.92;16.25;;;;;;;7.79;83.87;100597.14;1658473;85;21139;-76
2022/11/09 00:35:07;;;;;;;27.75;16.80;;;;;;;7.82;83.87;100593.23;1668293;85;21026;-76
2022/11/09 00:37:52;;;;;;;26.27;16.10;;;;;;;7.83;83.92;100592.37;1676943;84;21047;-76
2022/11/09 00:40:37;;;;;;;24.40;15.83;;;;;;;7.88;83.96;100586.77;1656661;85;21084;-76
2022/11/09 00:43:22;;;;;;;25.15;16.40;;;;;;;7.92;83.98;100588.45;1674253;83;21083;-76
2022/11/09 00:46:08;;;;;;;27.98;16.37;;;;;;;7.95;84.00;100584.58;1665378;84;21103;-76
2022/11/09 00:48:54;;;;;;;23.85;16.70;;;;;;;8.01;84.01;100592.70;1684964;84;21480;-76
2022/11/09 00:51:40;;;;;;;22.77;16.30;;;;;;;8.04;84.00;100595.69;1674734;85;20972;-76
2022/11/09 00:54:25;;;;;;;22.65;16.50;;;;;;;8.05;84.02;100589.25;1671913;84;21039;-76
2022/11/09 00:57:12;;;;;;;22.83;15.47;;;;;;;8.10;84.07;100579.77;1671948;83;349989;-76
2022/11/09 00:59:58;;;;;;;26.68;16.12;;;;;;;8.13;84.09;100581.47;1667643;85;622617;-76
2022/11/09 01:02:44;;;;;;;26.57;16.60;;;;;;;8.16;84.09;100565.56;1673607;85;20925;-76
2022/11/09 01:05:29;;;;;;;22.30;16.10;;;;;;;8.20;84.10;100574.12;1677543;85;20949;-76
2022/11/09 01:08:16;;;;;;;28.42;16.77;;;;;;;8.22;84.12;100565.52;1667309;84;21028;-77
2022/11/09 01:11:09;;;;;;;24.98;15.45;;;;;;;8.25;84.11;100562.08;1655488;85;22278;-77
2022/11/09 01:13:55;;;;;;;25.12;15.83;;;;;;;8.29;84.13;100563.33;1680249;85;21628;-76
2022/11/09 01:16:40;;;;;;;24.63;15.20;;;;;;;8.33;84.15;100563.30;1645063;85;21610;-76
2022/11/09 01:19:25;;;;;;;22.73;15.30;;;;;;;8.35;84.16;100559.84;1676995;85;21056;-76
2022/11/09 01:22:10;;;;;;;24.95;15.75;;;;;;;8.37;84.17;100563.27;1668998;83;21500;-76
2022/11/09 01:24:55;;;;;;;21.85;15.18;;;;;;;8.40;84.19;100554.66;1678906;83;21646;-76
2022/11/09 01:27:41;;;;;;;23.18;15.15;;;;;;;8.41;84.19;100552.07;1674615;84;20983;-76
2022/11/09 01:30:26;;;;;;;22.58;14.70;;;;;;;8.44;84.21;100561.50;1681226;83;21043;-76
2022/11/09 01:33:11;;;;;;;20.55;14.28;;;;;;;8.46;84.23;100556.75;1687111;83;20975;-76
2022/11/09 01:36:07;;;;;;;27.32;15.72;;;;;;;8.47;84.26;100561.04;1646755;85;21594;-76
2022/11/09 01:38:53;;;;;;;23.37;15.27;;;;;;;8.48;84.22;100550.30;1662782;84;21104;-76
2022/11/09 01:41:39;;;;;;;27.50;16.15;;;;;;;8.48;84.23;100549.87;1664099;84;21088;-76
2022/11/09 01:44:26;;;;;;;21.25;15.15;;;;;;;8.48;84.22;100538.70;1649684;85;21483;-76
2022/11/09 01:47:22;;;;;;;24.52;15.98;;;;;;;8.48;84.23;100544.72;1667769;84;21698;-76
2022/11/09 01:50:10;;;;;;;25.93;16.40;;;;;;;8.49;84.26;100555.87;1662015;84;21048;-76
2022/11/09 01:52:56;;;;;;;20.40;15.20;;;;;;;8.49;84.26;100549.00;1686308;83;21587;-76
2022/11/09 01:55:45;;;;;;;23.12;14.87;;;;;;;8.48;84.25;100555.02;1684494;83;21103;-76
2022/11/09 01:58:50;;;;;;;21.87;14.38;;;;;;;8.47;84.26;100537.85;1688171;84;20916;-76
2022/11/09 02:01:36;;;;;;;23.75;15.50;;;;;;;8.47;84.26;100535.70;1688554;83;20936;-76
2022/11/09 02:04:31;;;;;;;22.27;14.75;;;;;;;8.47;84.24;100535.70;1551213;84;5001676;-76
2022/11/09 02:07:18;;;;;;;24.18;15.35;;;;;;;8.46;84.26;100533.56;1664526;84;21095;-76
2022/11/09 02:10:53;;;;;;;20.75;14.20;;;;;;;8.45;84.29;100542.16;1654043;84;21071;-77
2022/11/09 02:13:42;;;;;;;26.63;15.20;;;;;;;8.44;84.28;100540.45;1666898;85;21155;-76
2022/11/09 02:16:29;;;;;;;22.95;14.53;;;;;;;8.43;84.31;100541.75;1656798;86;21575;-76
2022/11/09 02:19:14;;;;;;;20.82;15.28;;;;;;;8.42;84.30;100544.77;1664475;84;21213;-76
2022/11/09 02:22:01;;;;;;;20.92;14.47;;;;;;;8.42;84.30;100542.63;1686235;84;20991;-76
2022/11/09 02:24:47;;;;;;;22.60;15.23;;;;;;;8.41;84.31;100535.76;1662238;84;21505;-76
2022/11/09 02:27:32;;;;;;;27.05;14.83;;;;;;;8.40;84.31;100540.49;1669858;84;21629;-76
2022/11/09 02:30:20;;;;;;;21.68;14.65;;;;;;;8.39;84.31;100542.64;1660259;84;21045;-76
2022/11/09 02:33:05;;;;;;;24.85;14.33;;;;;;;8.38;84.31;100542.23;1665137;84;21120;-76
2022/11/09 02:35:50;;;;;;;23.18;15.43;;;;;;;8.38;84.33;100554.67;1659220;84;21005;-76
2022/11/09 02:38:35;;;;;;;20.40;14.38;;;;;;;8.38;84.31;100551.24;1666077;84;21124;-76
2022/11/09 02:41:22;;;;;;;21.25;15.13;;;;;;;8.38;84.31;100543.08;1654436;85;21255;-76
2022/11/09 02:44:07;;;;;;;20.68;13.83;;;;;;;8.39;84.34;100547.80;1662922;84;21052;-76
2022/11/09 02:46:52;;;;;;;18.65;14.73;;;;;;;8.40;84.34;100543.06;1660337;85;21080;-76
2022/11/09 02:49:37;;;;;;;23.95;15.30;;;;;;;8.41;84.38;100538.34;1668175;84;21035;-76
2022/11/09 02:52:23;;;;;;;20.32;14.93;;;;;;;8.42;84.37;100528.02;1665749;85;21072;-76
2022/11/09 02:55:08;;;;;;;21.95;16.00;;;;;;;8.45;84.40;100526.70;1643426;85;21086;-76
2022/11/09 02:57:54;;;;;;;23.67;15.55;;;;;;;8.46;84.40;100520.68;1675960;84;21004;-76
2022/11/09 03:00:39;;;;;;;22.65;16.30;;;;;;;8.49;84.38;100524.95;1661650;84;21072;-76
2022/11/09 03:03:24;;;;;;;20.43;15.45;;;;;;;8.51;84.39;100531.80;1662029;84;21051;-76
2022/11/09 03:06:09;;;;;;;23.87;15.98;;;;;;;8.54;84.38;100531.78;1651042;84;21008;-77
2022/11/09 03:08:54;;;;;;;22.13;15.63;;;;;;;8.56;84.39;100527.90;1672252;85;21619;-76
2022/11/09 03:11:41;;;;;;;21.50;15.25;;;;;;;8.58;84.38;100530.03;1670150;85;21036;-76
2022/11/09 03:14:26;;;;;;;;;;;;;;;8.57;84.39;100527.88;1655310;84;21912;-76
2022/11/09 03:17:12;;;;;;;20.50;14.15;;;;;;;8.60;84.41;100535.59;1672074;84;20168;-76
2022/11/09 03:19:57;;;;;;;;;;;;;;;8.61;84.41;100531.29;1669517;85;21039;-76
2022/11/09 03:22:42;;;;;;;23.35;14.55;;;;;;;8.63;84.42;100530.84;1657483;84;21330;-76
2022/11/09 03:25:27;;;;;;;21.37;14.83;;;;;;;8.63;84.38;100539.42;1655020;84;21101;-76
2022/11/09 03:28:12;;;;;;;20.52;14.85;;;;;;;8.65;84.41;100538.13;1670315;84;20992;-76
2022/11/09 03:30:57;;;;;;;20.85;15.48;;;;;;;8.66;84.39;100533.39;1665364;85;20993;-76
2022/11/09 03:33:43;;;;;;;22.70;15.18;;;;;;;8.67;84.39;100538.11;1660622;84;21005;-76
2022/11/09 03:36:28;;;;;;;19.37;14.98;;;;;;;8.69;84.39;100535.08;1674274;84;21331;-76
2022/11/09 03:39:13;;;;;;;22.25;15.40;;;;;;;8.71;84.41;100538.06;1670540;84;21040;-76
2022/11/09 03:41:58;;;;;;;23.00;14.93;;;;;;;8.73;84.40;100530.31;1661579;84;21159;-76
2022/11/09 03:44:43;;;;;;;20.45;14.87;;;;;;;8.74;84.40;100526.88;1647401;85;21691;-76
2022/11/09 03:47:28;;;;;;;22.77;16.50;;;;;;;8.75;84.37;100526.00;1650245;85;21092;-76
2022/11/09 03:50:16;;;;;;;21.97;15.32;;;;;;;8.75;84.37;100526.86;1667406;84;21100;-76
2022/11/09 03:53:01;;;;;;;25.75;15.70;;;;;;;8.78;84.36;100528.55;1655227;85;20966;-76
2022/11/09 03:55:48;;;;;;;22.90;15.90;;;;;;;8.78;84.34;100532.42;1659414;84;21418;-76
2022/11/09 03:58:32;;;;;;;;;;;;;;;8.78;84.37;100526.83;1656096;84;21076;-76
2022/11/09 04:01:17;;;;;;;18.12;14.10;;;;;;;8.78;84.36;100525.97;1663095;84;20704;-76
2022/11/09 04:04:03;;;;;;;25.75;15.65;;;;;;;8.77;84.35;100520.39;1652505;85;21120;-76
2022/11/09 04:06:48;;;;;;;20.72;14.40;;;;;;;8.77;84.34;100518.67;1675499;85;21114;-76
2022/11/09 04:09:33;;;;;;;22.48;15.10;;;;;;;8.75;84.35;100520.84;1664963;85;21072;-77
2022/11/09 04:12:18;;;;;;;22.05;15.23;;;;;;;8.73;84.31;100511.84;1655002;84;21478;-76
2022/11/09 04:15:05;;;;;;;21.55;15.32;;;;;;;8.72;84.32;100515.28;1666607;85;21080;-76
2022/11/09 04:18:00;;;;;;;20.08;14.63;;;;;;;8.70;84.32;100519.60;1656070;84;20961;-76
2022/11/09 04:20:45;;;;;;;23.55;15.45;;;;;;;8.68;84.32;100516.19;1671586;85;20937;-76
2022/11/09 04:23:30;;;;;;;21.50;14.00;;;;;;;8.65;84.34;100511.06;1676225;85;21343;-76
2022/11/09 04:26:17;;;;;;;20.57;15.08;;;;;;;8.64;84.32;100509.34;1667226;84;21069;-76
2022/11/09 04:29:02;;;;;;;24.23;15.23;;;;;;;8.61;84.30;100496.05;1657298;85;21060;-76
2022/11/09 04:31:49;;;;;;;19.53;14.77;;;;;;;8.60;84.31;100489.20;1657368;84;21081;-76
2022/11/09 04:34:34;;;;;;;23.27;15.72;;;;;;;8.59;84.32;100498.23;1656478;85;20934;-76
2022/11/09 04:37:18;;;;;;;23.85;15.78;;;;;;;8.56;84.27;100495.25;1670297;85;21496;-76
2022/11/09 04:40:05;;;;;;;17.32;14.47;;;;;;;8.54;84.28;100495.70;1666249;84;21517;-76
2022/11/09 04:42:50;;;;;;;19.60;14.65;;;;;;;8.54;84.27;100496.12;1657149;84;20953;-77
2022/11/09 04:45:35;;;;;;;21.30;14.93;;;;;;;8.52;84.28;100488.84;1659006;84;21059;-76
2022/11/09 04:48:19;;;;;;;19.82;15.35;;;;;;;8.50;84.27;100492.73;1640683;85;21012;-76
2022/11/09 04:51:09;;;;;;;18.67;14.28;;;;;;;8.48;84.26;100497.04;1647596;85;21908;-76
2022/11/09 04:53:55;;;;;;;23.18;15.08;;;;;;;8.47;84.26;100495.34;1666753;84;21112;-76
2022/11/09 04:56:40;;;;;;;20.53;15.20;;;;;;;8.46;84.25;100507.80;1659257;85;21127;-76
2022/11/09 04:59:25;;;;;;;17.27;13.83;;;;;;;8.44;84.26;100508.24;1674511;84;21076;-76
2022/11/09 05:02:11;;;;;;;19.27;13.55;;;;;;;8.42;84.24;100500.11;1668558;85;22091;-76
2022/11/09 05:04:56;;;;;;;20.72;14.93;;;;;;;8.40;84.24;100499.27;1662252;85;21091;-76
2022/11/09 05:07:42;;;;;;;20.52;14.63;;;;;;;8.38;84.23;100507.44;1667345;84;21088;-76
2022/11/09 05:10:27;;;;;;;19.67;14.13;;;;;;;8.36;84.23;100501.02;1665339;84;21052;-77
2022/11/09 05:13:13;;;;;;;22.55;14.38;;;;;;;8.35;84.24;100499.30;1663769;84;21100;-76
2022/11/09 05:16:00;;;;;;;22.70;14.75;;;;;;;8.33;84.20;100501.48;1661081;84;21092;-76
2022/11/09 05:18:46;;;;;;;20.92;14.73;;;;;;;8.30;84.18;100495.91;1660244;84;21092;-76
2022/11/09 05:21:31;;;;;;;;;;;;;;;8.27;84.18;100499.38;1662837;84;21012;-76
2022/11/09 05:24:16;;;;;;;21.82;14.68;;;;;;;8.25;84.17;100500.25;1660987;85;20234;-76
2022/11/09 05:27:03;;;;;;;27.25;15.85;;;;;;;8.24;84.21;100502.41;1665091;84;21108;-76
2022/11/09 05:29:48;;;;;;;20.90;15.20;;;;;;;8.20;84.19;100500.28;1664015;85;21080;-76
2022/11/09 05:32:37;;;;;;;23.10;15.20;;;;;;;8.17;84.14;100501.60;1664344;84;21144;-76
2022/11/09 05:35:23;;;;;;;20.77;14.30;;;;;;;8.16;84.17;100502.90;1671123;84;21062;-76
2022/11/09 05:38:08;;;;;;;24.18;15.00;;;;;;;8.14;84.19;100502.05;1668399;84;21113;-76
2022/11/09 05:40:54;;;;;;;21.42;14.35;;;;;;;8.11;84.15;100499.07;1665497;84;21039;-76
2022/11/09 05:43:39;;;;;;;20.95;14.93;;;;;;;8.10;84.17;100505.09;1657819;85;21088;-76
2022/11/09 05:46:25;;;;;;;23.52;14.93;;;;;;;8.09;84.19;100507.67;1653196;85;20999;-76
2022/11/09 05:49:11;;;;;;;22.03;15.30;;;;;;;8.06;84.15;100503.83;1657442;84;21633;-76
2022/11/09 05:51:56;;;;;;;23.87;14.93;;;;;;;8.04;84.13;100493.98;1660123;85;21063;-76
2022/11/09 05:54:41;;;;;;;21.20;14.83;;;;;;;8.03;84.15;100494.84;1658260;85;21027;-76
2022/11/09 05:57:27;;;;;;;20.77;14.45;;;;;;;8.01;84.15;100498.72;1661903;84;21126;-76
2022/11/09 06:00:14;;;;;;;22.90;14.35;;;;;;;8.00;84.14;100509.88;1649252;85;21658;-76
2022/11/09 06:03:09;;;;;;;18.95;13.83;;;;;;;7.99;84.16;100512.03;1676127;84;176048;-76
2022/11/09 06:05:53;;;;;;;19.80;13.78;;;;;;;7.97;84.10;100501.75;1654933;84;20960;-76
2022/11/09 06:08:38;;;;;;;20.48;13.58;;;;;;;7.95;84.13;100509.06;1661307;84;20927;-77
2022/11/09 06:11:23;;;;;;;21.95;13.93;;;;;;;7.95;84.11;100510.34;1668280;84;20936;-76
2022/11/09 06:14:08;;;;;;;18.30;13.88;;;;;;;7.93;84.11;100502.63;1667169;85;20944;-76
2022/11/09 06:16:54;;;;;;;18.85;12.80;;;;;;;7.93;84.08;100494.05;1657049;84;21503;-76
2022/11/09 06:19:39;;;;;;;20.82;14.18;;;;;;;7.91;84.10;100495.35;1666072;85;21564;-76
2022/11/09 06:22:25;;;;;;;19.62;13.55;;;;;;;7.91;84.12;100494.50;1655594;84;22243;-76
2022/11/09 06:25:11;;;;;;;20.05;13.45;;;;;;;7.91;84.14;100496.64;1661889;84;21063;-76
2022/11/09 06:27:57;;;;;;;19.77;13.83;;;;;;;7.95;84.14;100507.34;1682217;83;21044;-76
2022/11/09 06:30:42;;;;;;;19.25;12.80;;;;;;;7.96;84.16;100491.02;1679654;83;21114;-78
2022/11/09 06:33:30;;;;;;;20.77;13.80;;;;;;;8.00;84.15;100512.89;1677377;83;21091;-78
2022/11/09 06:36:16;;;;;;;22.20;13.55;;;;;;;8.03;84.14;100516.30;1680327;83;21469;-78
2022/11/09 06:39:01;;;;;;;21.33;14.05;;;;;;;8.06;84.13;100517.56;1681936;83;21017;-79
2022/11/09 06:41:46;;;;;;;19.85;13.98;;;;;;;8.10;84.15;100526.98;1687523;83;21026;-79
2022/11/09 06:44:31;;;;;;;20.52;14.60;;;;;;;8.16;84.17;100529.94;1685645;83;21052;-79
2022/11/09 06:47:16;;;;;;;22.02;14.13;;;;;;;8.21;84.22;100540.63;1681657;83;21067;-79
2022/11/09 06:50:01;;;;;;;22.25;14.13;;;;;;;8.31;84.23;100544.00;1683645;84;21047;-79
2022/11/09 06:52:46;;;;;;;23.32;15.05;;;;;;;8.37;84.17;100545.23;1684070;83;21120;-79
2022/11/09 06:55:33;;;;;;;25.90;14.95;;;;;;;8.43;84.14;100540.47;1684399;83;21911;-79
2022/11/09 06:58:19;;;;;;;22.13;14.75;;;;;;;8.48;84.16;100535.70;1680051;84;21594;-79
2022/11/09 07:01:10;;;;;;;23.25;14.50;;;;;;;8.56;84.20;100535.20;1684218;83;21459;-79
2022/11/09 07:03:55;;;;;;;23.35;14.70;;;;;;;8.70;84.22;100540.66;1633353;86;21135;-79
2022/11/09 07:06:42;;;;;;;23.90;14.63;;;;;;;8.82;84.23;100530.23;1641024;85;21079;-79
2022/11/09 07:09:27;;;;;;;19.20;14.38;;;;;;;8.98;84.24;100546.37;1640032;85;20957;-79
2022/11/09 07:12:11;;;;;;;20.45;13.98;;;;;;;9.06;84.09;100542.84;1634020;86;20997;-80
2022/11/09 07:14:56;;;;;;;19.32;14.58;;;;;;;9.16;84.14;100543.59;1686086;83;21445;-80
2022/11/09 07:17:41;;;;;;;18.87;14.43;;;;;;;9.29;84.13;100540.00;1683448;83;21456;-80
2022/11/09 07:20:27;;;;;;;21.25;13.83;;;;;;;9.38;84.08;100545.02;1687332;83;20975;-79
2022/11/09 07:23:12;;;;;;;21.10;14.60;;;;;;;9.45;84.08;100538.91;1685284;83;20956;-79
2022/11/09 07:25:58;;;;;;;22.42;15.18;;;;;;;9.55;84.13;100546.10;1681039;83;21365;-79
2022/11/09 07:28:43;;;;;;;22.15;14.90;;;;;;;9.66;84.15;100546.81;1676640;83;20897;-79
2022/11/09 07:31:29;;;;;;;19.65;14.18;;;;;;;9.75;84.05;100543.26;1672056;84;20905;-79
2022/11/09 07:34:14;;;;;;;22.75;14.93;;;;;;;9.83;84.12;100537.11;1675825;83;20900;-80
2022/11/09 07:36:59;;;;;;;22.58;15.65;;;;;;;9.94;84.10;100540.80;1658047;84;20909;-79
2022/11/09 07:39:44;;;;;;;22.25;15.08;;;;;;;10.01;84.09;100541.57;1672888;83;21335;-79
2022/11/09 07:42:29;;;;;;;25.48;16.02;;;;;;;10.04;84.00;100544.11;1675330;85;21022;-79
2022/11/09 07:45:14;;;;;;;19.35;14.95;;;;;;;10.03;84.00;100535.94;1668973;84;21091;-79
2022/11/09 07:48:03;;;;;;;20.30;15.25;;;;;;;10.04;84.03;100523.00;1676229;84;20991;-79
2022/11/09 07:50:48;;;;;;;20.00;14.70;;;;;;;10.06;84.08;100516.08;1675895;84;21040;-79
2022/11/09 07:53:34;;;;;;;21.65;15.48;;;;;;;10.08;84.04;100518.20;1676784;84;21116;-79
2022/11/09 07:56:19;;;;;;;20.60;14.70;;;;;;;10.11;84.12;100513.43;1670967;83;21092;-79
2022/11/09 07:59:04;;;;;;;21.17;14.58;;;;;;;10.13;84.10;100515.11;1672637;83;21114;-79
2022/11/09 08:01:49;;;;;;;20.35;14.55;;;;;;;10.16;84.10;100527.98;1675978;83;21040;-79
2022/11/09 08:04:35;;;;;;;19.52;14.33;;;;;;;10.20;84.11;100527.09;1674317;84;21051;-79
2022/11/09 08:07:22;;;;;;;19.17;14.20;;;;;;;10.24;84.09;100532.63;1672315;83;21051;-79
2022/11/09 08:10:07;;;;;;;;;;;;;;;10.28;84.08;100525.67;1677375;83;21108;-79
2022/11/09 08:12:57;;;;;;;18.85;13.40;;;;;;;10.32;83.89;100523.89;1675124;83;20637;-79
2022/11/09 08:15:43;;;;;;;17.20;12.35;;;;;;;10.35;84.01;100532.89;1669653;84;21095;-79
2022/11/09 08:18:29;;;;;;;18.52;13.40;;;;;;;10.36;83.99;100526.41;1675472;84;21238;-79
2022/11/09 08:21:14;;;;;;;23.30;13.47;;;;;;;10.40;84.02;100520.27;1670854;83;20991;-79
2022/11/09 08:23:59;;;;;;;19.82;12.40;;;;;;;10.42;83.94;100518.95;1673440;84;21015;-79
2022/11/09 08:26:44;;;;;;;16.87;12.68;;;;;;;10.43;83.90;100524.54;1676955;84;21496;-79
2022/11/09 08:29:29;;;;;;;23.27;13.35;;;;;;;10.44;83.83;100541.32;1670123;84;21055;-79
2022/11/09 08:32:14;;;;;;;17.92;12.80;;;;;;;10.44;83.84;100548.22;1669885;83;21108;-79
2022/11/09 08:34:59;;;;;;;19.85;13.45;;;;;;;10.44;83.80;100546.48;1680700;84;21061;-79
2022/11/09 08:37:46;;;;;;;19.32;13.32;;;;;;;10.45;83.83;100552.52;1678136;84;21126;-79
2022/11/09 08:40:32;;;;;;;16.82;12.88;;;;;;;10.46;83.83;100550.34;1675243;84;20993;-79
2022/11/09 08:43:17;;;;;;;19.85;13.68;;;;;;;10.46;83.79;100549.05;1675393;83;20995;-79
2022/11/09 08:46:03;;;;;;;17.67;13.22;;;;;;;10.45;83.76;100557.24;1672096;83;21059;-79
2022/11/09 08:48:48;;;;;;;20.27;13.80;;;;;;;10.42;83.69;100566.34;1673292;83;21886;-79
2022/11/09 08:51:33;;;;;;;19.80;13.28;;;;;;;10.40;83.68;100555.17;1670165;83;21179;-79
2022/11/09 08:54:18;;;;;;;20.17;13.93;;;;;;;10.39;83.68;100562.55;1672646;84;21143;-79
2022/11/09 08:57:03;;;;;;;17.98;13.58;;;;;;;10.38;83.67;100559.55;1667069;83;21032;-79
2022/11/09 08:59:48;;;;;;;26.48;14.43;;;;;;;10.37;83.65;100565.59;1664007;83;21081;-79
2022/11/09 09:02:33;;;;;;;22.50;14.10;;;;;;;10.38;83.64;100562.57;1672382;83;21064;-79
2022/11/09 09:05:20;;;;;;;21.42;16.02;;;;;;;10.40;83.65;100563.39;1676076;83;21100;-79
2022/11/09 09:08:06;;;;;;;21.02;15.08;;;;;;;10.43;83.64;100557.70;1676243;83;20953;-79
2022/11/09 09:10:51;;;;;;;22.32;14.87;;;;;;;10.50;83.67;100550.27;1680126;84;20920;-79
2022/11/09 09:13:35;;;;;;;24.30;14.98;;;;;;;10.59;83.65;100555.72;1678900;85;21358;-79
2022/11/09 09:16:21;;;;;;;20.45;13.78;;;;;;;10.68;83.66;100551.69;1673085;83;20972;-79
2022/11/09 09:19:06;;;;;;;18.37;13.32;;;;;;;10.81;83.67;100556.20;1673669;83;21116;-79
2022/11/09 09:21:52;;;;;;;19.52;14.45;;;;;;;10.92;83.59;100564.16;1669613;83;39239;-79
2022/11/09 09:24:37;;;;;;;19.85;12.75;;;;;;;11.01;83.55;100563.58;1674805;83;21032;-79
2022/11/09 09:27:22;;;;;;;20.52;13.72;;;;;;;11.08;83.53;100559.55;1673442;83;21123;-79
2022/11/09 09:30:09;;;;;;;18.30;13.20;;;;;;;11.15;83.48;100558.56;1670495;83;21126;-78
2022/11/09 09:32:59;;;;;;;18.48;13.13;;;;;;;11.20;83.39;100559.77;1673776;84;20979;-78
2022/11/09 09:35:44;;;;;;;17.17;12.20;;;;;;;11.23;83.36;100563.59;1668160;84;21758;-78
2022/11/09 09:38:29;;;;;;;18.00;12.98;;;;;;;11.22;83.32;100558.85;1675798;83;20917;-78
2022/11/09 09:41:25;;;;;;;22.42;12.55;;;;;;;11.24;83.36;100557.53;1674066;84;21036;-78
2022/11/09 09:44:27;;;;;;;18.17;13.35;;;;;;;11.24;83.28;100558.82;1671963;83;21056;-78
2022/11/09 09:47:20;;;;;;;17.02;11.90;;;;;;;11.24;83.28;100551.91;1666652;84;21124;-78
2022/11/09 09:50:13;;;;;;;22.77;11.93;;;;;;;11.26;83.25;100546.27;1673566;83;21000;-77
2022/11/09 09:53:03;;;;;;;19.00;12.88;;;;;;;11.29;83.25;100549.23;1676221;83;21038;-77
2022/11/09 09:56:20;;;;;;;15.35;11.35;;;;;;;11.34;83.28;100556.91;1675019;83;21080;-77
2022/11/09 09:59:37;;;;;;;14.93;11.38;;;;;;;11.39;83.22;100558.96;1675426;83;21653;-77
2022/11/09 10:02:29;;;;;;;19.20;12.05;;;;;;;11.46;83.21;100561.81;1674231;84;21812;-77
2022/11/09 10:05:17;;;;;;;14.73;11.05;;;;;;;11.52;83.18;100559.09;1668377;84;21028;-77
2022/11/09 10:08:10;;;;;;;15.45;11.25;;;;;;;11.55;83.09;100557.73;1669543;83;21059;-77
2022/11/09 10:11:23;;;;;;;14.15;11.18;;;;;;;11.58;83.13;100558.52;1665452;84;21281;-77
2022/11/09 10:14:47;;;;;;;16.62;10.93;;;;;;;11.63;83.07;100557.58;1669620;84;22630;-76
2022/11/09 10:17:58;;;;;;;16.15;12.03;;;;;;;11.67;83.01;100565.25;1668388;83;21472;-76
2022/11/09 10:20:55;;;;;;;18.20;12.37;;;;;;;11.71;82.95;100566.89;1667338;84;21337;-76
2022/11/09 10:24:20;;;;;;;17.45;12.20;;;;;;;11.74;82.96;100569.86;1664446;84;21570;-78
2022/11/09 10:27:19;;;;;;;19.75;13.20;;;;;;;11.77;82.89;100581.48;1670461;83;21146;-78
2022/11/09 10:30:19;;;;;;;18.52;12.58;;;;;;;11.83;82.84;100577.47;1641344;83;20984;-78
2022/11/09 10:33:12;;;;;;;19.65;13.68;;;;;;;11.86;82.84;100584.73;1673863;83;20993;-78
2022/11/09 10:36:23;;;;;;;24.35;15.03;;;;;;;11.87;82.79;100592.91;1672367;84;20941;-78
2022/11/09 10:39:13;;;;;;;19.98;13.58;;;;;;;11.87;82.74;100598.09;1674449;83;21071;-78
2022/11/09 10:41:57;;;;;;;21.27;13.98;;;;;;;11.88;82.65;100606.72;1672757;83;21063;-77
2022/11/09 10:44:43;;;;;;;23.25;12.95;;;;;;;11.87;82.70;100600.69;1668536;83;21068;-78
2022/11/09 10:47:28;;;;;;;19.62;13.00;;;;;;;11.85;82.55;100594.69;1672983;83;21056;-78
2022/11/09 10:50:41;;;;;;;20.97;12.37;;;;;;;11.86;82.57;100598.12;1602473;87;21197;-78
2022/11/09 10:53:30;;;;;;;18.27;12.58;;;;;;;11.87;82.51;100605.02;1600351;87;21026;-78
2022/11/09 10:56:20;;;;;;;20.45;12.55;;;;;;;11.88;82.53;100601.54;1605951;87;21697;-77
2022/11/09 10:59:30;;;;;;;17.92;12.47;;;;;;;11.89;82.55;100595.03;1606629;87;21122;-77
2022/11/09 11:02:40;;;;;;;16.52;11.45;;;;;;;11.91;82.48;100599.73;1607707;87;21139;-78
2022/11/09 11:05:28;;;;;;;17.87;12.53;;;;;;;11.91;82.49;100599.73;1675041;83;21437;-78
2022/11/09 11:08:30;;;;;;;16.77;12.10;;;;;;;11.92;82.42;100588.92;1679368;83;21068;-78
2022/11/09 11:11:31;;;;;;;18.57;12.23;;;;;;;11.89;82.43;100595.03;1677236;83;21108;-77
2022/11/09 11:14:27;;;;;;;17.42;12.03;;;;;;;11.88;82.36;100592.03;1673052;83;21063;-76
2022/11/09 11:17:29;;;;;;;18.50;12.82;;;;;;;11.89;82.40;100598.06;1676365;83;21071;-76
2022/11/09 11:20:33;;;;;;;18.30;12.13;;;;;;;11.94;82.43;100600.11;1655103;85;21060;-78
2022/11/09 11:23:22;;;;;;;19.67;11.90;;;;;;;12.00;82.41;100588.73;1657790;83;21406;-78
2022/11/09 11:26:26;;;;;;;18.00;12.30;;;;;;;12.01;82.36;100599.50;1669411;83;21525;-78
2022/11/09 11:29:32;;;;;;;17.12;12.23;;;;;;;12.01;82.29;100596.91;1676245;84;21563;-77
2022/11/09 11:32:19;;;;;;;20.23;13.53;;;;;;;12.01;82.29;100587.84;1671708;83;21072;-77
2022/11/09 11:37:44;;;;;;;20.72;13.45;;;;;;;12.06;82.25;100585.56;1793648;78;22740;-78
2022/11/09 11:41:05;;;;;;;18.87;14.03;;;;;;;12.04;82.28;100583.89;1764253;79;21028;-76
2022/11/09 11:43:52;;;;;;;27.80;16.40;;;;;;;12.09;82.25;100579.45;1754077;79;21540;-76
2022/11/09 11:47:23;;;;;;;23.45;14.83;;;;;;;12.12;82.16;100579.38;1758884;79;20902;-76
2022/11/09 11:50:19;;;;;;;22.15;14.65;;;;;;;12.14;82.15;100579.75;1763381;79;21363;-76
2022/11/09 11:53:27;;;;;;;22.52;14.95;;;;;;;12.19;82.13;100576.61;1765577;79;20926;-76
2022/11/09 11:56:54;;;;;;;21.87;14.47;;;;;;;12.24;82.09;100590.33;1766868;79;21072;-77
2022/11/09 11:59:53;;;;;;;26.53;13.24;;;;;;;12.26;82.07;100574.73;1699159;79;5000940;-77
2022/11/09 12:02:46;;;;;;;22.17;13.58;;;;;;;12.29;82.02;100566.03;1683963;83;21403;-77
2022/11/09 12:05:56;;;;;;;22.13;14.13;;;;;;;12.30;82.02;100562.11;1701389;82;20970;-77
2022/11/09 12:08:51;;;;;;;23.12;14.53;;;;;;;12.31;82.00;100579.81;1706459;82;20921;-77
2022/11/09 12:11:59;;;;;;;21.00;14.58;;;;;;;12.32;81.92;100590.15;1697689;82;21430;-77
2022/11/09 12:15:07;;;;;;;23.30;14.47;;;;;;;12.32;81.91;100598.37;1699689;82;21257;-77
2022/11/09 12:18:22;;;;;;;24.35;13.88;;;;;;;12.32;81.89;100603.56;1696473;82;20906;-77
2022/11/09 12:21:24;;;;;;;20.77;13.05;;;;;;;12.31;81.86;100591.03;1702863;82;20929;-78
2022/11/09 12:24:28;;;;;;;21.52;13.68;;;;;;;12.27;81.86;100579.03;1693199;82;20935;-78
2022/11/09 12:27:44;;;;;;;18.47;13.53;;;;;;;12.28;81.86;100572.11;1695994;82;20904;-77
2022/11/09 12:30:52;;;;;;;23.73;14.87;;;;;;;12.28;81.85;100562.59;1692163;82;25005;-77
2022/11/09 12:33:51;;;;;;;23.57;14.07;;;;;;;12.27;81.86;100562.18;1692658;84;20924;-77
2022/11/09 12:36:41;;;;;;;27.50;14.98;;;;;;;12.28;81.86;100547.48;1682088;82;20978;-77
2022/11/09 12:39:45;;;;;;;26.20;17.05;;;;;;;12.27;81.87;100550.52;1687811;83;20973;-77
2022/11/09 12:42:45;;;;;;;28.23;15.68;;;;;;;12.28;81.84;100541.00;1689771;83;20925;-77
2022/11/09 12:45:39;;;;;;;26.75;16.82;;;;;;;12.25;81.82;100547.11;1685963;83;21356;-77
2022/11/09 12:48:34;;;;;;;25.82;17.12;;;;;;;12.23;81.84;100562.70;1681543;83;21456;-77
2022/11/09 12:51:20;;;;;;;26.60;16.60;;;;;;;12.21;81.84;100570.95;1687523;83;20989;-77
2022/11/09 12:54:11;;;;;;;23.83;16.17;;;;;;;12.21;81.86;100573.98;1684568;83;20993;-78
2022/11/09 12:57:00;;;;;;;23.75;14.58;;;;;;;12.18;81.83;100575.36;1673655;83;20937;-78
2022/11/09 12:59:55;;;;;;;24.15;15.32;;;;;;;12.16;81.83;100576.69;1691983;83;21217;-78